Rio Claro, Brazil
Current Conditions -  °F | °C
As of 9:00 PM on Friday 24 Oct 2014 (Local Time) from SBYS Reporting Station
Thunderstorm Thunderstorm  
Wind Chill: 75°   Ceiling: 10000
Heat Index: 75°   Visibility: 6mi
Dew Point: 57°   Wind: 5mph
Humidity: 53%   Direction: 300°WNW
Pressure: NA   Gusts: NA
Location:  22.41°S, 47.56°W
Report Text: SBYS 242300Z 30004KT 9999 VCTS SCT040 FEW045CB OVC100 24/14 Q1013
Loading
Personal Weather Stations






























Interactive Weather Map
Tropical Storm Tracking
New forecast layout! Learn more

10-Day Weather Forecast

Advertisements
Track Severe Weather on mobile